sensor_id;sensor_type;location;lat;lon;timestamp;pressure;altitude;pressure_sealevel;temperature;humidity
46946;BME280;32679;40.810;14.498;2023-10-09T00:01:51;100814.19;;;19.15;80.48
46946;BME280;32679;40.810;14.498;2023-10-09T00:04:17;100797.25;;;19.15;80.67
46946;BME280;32679;40.810;14.498;2023-10-09T00:06:43;100822.94;;;19.53;79.90
46946;BME280;32679;40.810;14.498;2023-10-09T00:09:10;100793.59;;;19.32;78.63
46946;BME280;32679;40.810;14.498;2023-10-09T00:11:56;100799.63;;;19.34;77.24
46946;BME280;32679;40.810;14.498;2023-10-09T00:14:27;100820.13;;;19.49;77.03
46946;BME280;32679;40.810;14.498;2023-10-09T00:16:55;100814.94;;;19.37;75.97
46946;BME280;32679;40.810;14.498;2023-10-09T00:19:36;100819.78;;;19.36;75.97
46946;BME280;32679;40.810;14.498;2023-10-09T00:22:02;100819.78;;;19.36;75.63
46946;BME280;32679;40.810;14.498;2023-10-09T00:24:36;100808.91;;;19.35;75.20
46946;BME280;32679;40.810;14.498;2023-10-09T00:27:06;100807.69;;;19.40;75.18
46946;BME280;32679;40.810;14.498;2023-10-09T00:29:41;100790.78;;;19.25;76.09
46946;BME280;32679;40.810;14.498;2023-10-09T00:32:13;100808.53;;;19.29;76.80
46946;BME280;32679;40.810;14.498;2023-10-09T00:34:48;100811.34;;;19.29;77.07
46946;BME280;32679;40.810;14.498;2023-10-09T00:37:16;100797.63;;;19.35;77.66
46946;BME280;32679;40.810;14.498;2023-10-09T00:39:43;100802.06;;;19.29;77.12
46946;BME280;32679;40.810;14.498;2023-10-09T00:42:12;100809.31;;;19.26;77.27
46946;BME280;32679;40.810;14.498;2023-10-09T00:44:40;100802.91;;;19.15;78.51
46946;BME280;32679;40.810;14.498;2023-10-09T00:47:08;100771.53;;;18.84;77.54
46946;BME280;32679;40.810;14.498;2023-10-09T00:49:54;100796.44;;;19.22;78.17
46946;BME280;32679;40.810;14.498;2023-10-09T00:52:30;100775.97;;;18.96;76.66
46946;BME280;32679;40.810;14.498;2023-10-09T00:55:02;100794.06;;;19.13;76.33
46946;BME280;32679;40.810;14.498;2023-10-09T00:57:34;100779.94;;;19.20;76.26
46946;BME280;32679;40.810;14.498;2023-10-09T01:00:03;100774.66;;;19.29;76.25
46946;BME280;32679;40.810;14.498;2023-10-09T01:02:36;100791.53;;;19.44;75.51
46946;BME280;32679;40.810;14.498;2023-10-09T01:05:03;100782.66;;;19.45;75.85
46946;BME280;32679;40.810;14.498;2023-10-09T01:07:45;100786.31;;;19.42;75.42
46946;BME280;32679;40.810;14.498;2023-10-09T01:10:11;100782.72;;;19.34;75.06
46946;BME280;32679;40.810;14.498;2023-10-09T01:12:36;100783.50;;;19.31;76.00
46946;BME280;32679;40.810;14.498;2023-10-09T01:15:09;100774.66;;;19.29;76.42
46946;BME280;32679;40.810;14.498;2023-10-09T01:17:42;100792.41;;;19.30;76.16
46946;BME280;32679;40.810;14.498;2023-10-09T01:20:11;100788.75;;;19.36;75.61
46946;BME280;32679;40.810;14.498;2023-10-09T01:22:43;100765.00;;;19.27;76.19
46946;BME280;32679;40.810;14.498;2023-10-09T01:25:09;100753.69;;;19.30;76.15
46946;BME280;32679;40.810;14.498;2023-10-09T01:27:35;100771.00;;;19.40;75.92
46946;BME280;32679;40.810;14.498;2023-10-09T01:30:06;100744.84;;;19.25;76.47
46946;BME280;32679;40.810;14.498;2023-10-09T01:32:31;100778.25;;;19.44;76.98
46946;BME280;32679;40.810;14.498;2023-10-09T01:34:57;100764.19;;;19.30;76.60
46946;BME280;32679;40.810;14.498;2023-10-09T01:37:23;100772.16;;;19.49;76.43
46946;BME280;32679;40.810;14.498;2023-10-09T01:39:52;100785.88;;;19.44;75.75
46946;BME280;32679;40.810;14.498;2023-10-09T01:42:20;100756.13;;;19.28;75.80
46946;BME280;32679;40.810;14.498;2023-10-09T01:45:11;100773.03;;;19.35;75.54
46946;BME280;32679;40.810;14.498;2023-10-09T01:47:37;100763.81;;;19.24;75.46
46946;BME280;32679;40.810;14.498;2023-10-09T01:50:06;100770.25;;;19.28;75.57
46946;BME280;32679;40.810;14.498;2023-10-09T01:52:37;100744.91;;;19.07;75.64
46946;BME280;32679;40.810;14.498;2023-10-09T01:55:02;100763.38;;;19.26;75.85
46946;BME280;32679;40.810;14.498;2023-10-09T01:57:48;100747.25;;;19.26;75.75
46946;BME280;32679;40.810;14.498;2023-10-09T02:00:14;100758.53;;;19.26;75.30
46946;BME280;32679;40.810;14.498;2023-10-09T02:02:47;100766.97;;;19.37;75.79
46946;BME280;32679;40.810;14.498;2023-10-09T02:05:13;100770.22;;;19.35;75.74
46946;BME280;32679;40.810;14.498;2023-10-09T02:07:42;100748.91;;;19.24;76.06
46946;BME280;32679;40.810;14.498;2023-10-09T02:10:17;100750.91;;;19.23;76.35
46946;BME280;32679;40.810;14.498;2023-10-09T02:13:02;100769.81;;;19.33;75.19
46946;BME280;32679;40.810;14.498;2023-10-09T02:15:37;100773.06;;;19.21;75.38
46946;BME280;32679;40.810;14.498;2023-10-09T02:18:09;100767.81;;;19.27;76.12
46946;BME280;32679;40.810;14.498;2023-10-09T02:20:48;100775.03;;;19.35;76.87
46946;BME280;32679;40.810;14.498;2023-10-09T02:23:30;100778.59;;;19.53;76.78
46946;BME280;32679;40.810;14.498;2023-10-09T02:26:15;100781.50;;;19.35;74.82
46946;BME280;32679;40.810;14.498;2023-10-09T02:28:54;100778.66;;;19.35;75.32
46946;BME280;32679;40.810;14.498;2023-10-09T02:31:41;100771.06;;;19.18;74.75
46946;BME280;32679;40.810;14.498;2023-10-09T02:34:11;100781.16;;;19.19;74.40
46946;BME280;32679;40.810;14.498;2023-10-09T02:36:37;100771.50;;;19.13;74.74
46946;BME280;32679;40.810;14.498;2023-10-09T02:39:07;100783.19;;;19.08;75.85
46946;BME280;32679;40.810;14.498;2023-10-09T02:41:46;100752.97;;;19.05;75.81
46946;BME280;32679;40.810;14.498;2023-10-09T02:44:15;100770.31;;;19.00;74.77
46946;BME280;32679;40.810;14.498;2023-10-09T02:46:41;100755.00;;;18.94;75.21
46946;BME280;32679;40.810;14.498;2023-10-09T02:49:06;100753.41;;;18.89;75.90
46946;BME280;32679;40.810;14.498;2023-10-09T02:51:35;100773.13;;;19.00;75.84
46946;BME280;32679;40.810;14.498;2023-10-09T02:54:07;100767.09;;;18.91;75.18
46946;BME280;32679;40.810;14.498;2023-10-09T02:56:43;100754.66;;;18.77;75.94
46946;BME280;32679;40.810;14.498;2023-10-09T02:59:09;100770.34;;;18.93;76.57
46946;BME280;32679;40.810;14.498;2023-10-09T03:01:36;100777.97;;;18.96;76.61
46946;BME280;32679;40.810;14.498;2023-10-09T03:04:05;100767.91;;;18.95;75.32
46946;BME280;32679;40.810;14.498;2023-10-09T03:06:34;100758.25;;;18.74;74.41
46946;BME280;32679;40.810;14.498;2023-10-09T03:09:03;100769.53;;;18.89;75.03
46946;BME280;32679;40.810;14.498;2023-10-09T03:11:46;100782.41;;;18.93;75.75
46946;BME280;32679;40.810;14.498;2023-10-09T03:14:13;100770.75;;;18.88;74.71
46946;BME280;32679;40.810;14.498;2023-10-09T03:16:39;100761.88;;;18.82;73.94
46946;BME280;32679;40.810;14.498;2023-10-09T03:19:04;100782.41;;;18.90;74.27
46946;BME280;32679;40.810;14.498;2023-10-09T03:21:30;100769.53;;;18.89;73.67
46946;BME280;32679;40.810;14.498;2023-10-09T03:23:55;100754.66;;;18.70;74.11
46946;BME280;32679;40.810;14.498;2023-10-09T03:26:21;100750.59;;;18.64;73.01
46946;BME280;32679;40.810;14.498;2023-10-09T03:28:51;100736.94;;;18.59;73.70
46946;BME280;32679;40.810;14.498;2023-10-09T03:31:18;100773.97;;;18.82;72.75
46946;BME280;32679;40.810;14.498;2023-10-09T03:33:43;100766.72;;;18.89;72.79
46946;BME280;32679;40.810;14.498;2023-10-09T03:36:09;100765.91;;;18.84;71.52
46946;BME280;32679;40.810;14.498;2023-10-09T03:38:40;100773.56;;;18.88;70.72
46946;BME280;32679;40.810;14.498;2023-10-09T03:41:06;100772.34;;;18.89;70.68
46946;BME280;32679;40.810;14.498;2023-10-09T03:43:35;100766.72;;;18.89;70.42
46946;BME280;32679;40.810;14.498;2023-10-09T03:46:10;100773.16;;;18.86;70.10
46946;BME280;32679;40.810;14.498;2023-10-09T03:48:46;100746.59;;;18.72;69.66
46946;BME280;32679;40.810;14.498;2023-10-09T03:51:13;100756.66;;;18.73;70.11
46946;BME280;32679;40.810;14.498;2023-10-09T03:53:40;100767.53;;;18.82;69.84
46946;BME280;32679;40.810;14.498;2023-10-09T03:56:07;100741.75;;;18.62;69.76
46946;BME280;32679;40.810;14.498;2023-10-09T03:58:44;100754.63;;;18.88;70.41
46946;BME280;32679;40.810;14.498;2023-10-09T04:01:18;100765.88;;;18.99;69.57
46946;BME280;32679;40.810;14.498;2023-10-09T04:04:02;100741.75;;;18.83;69.01
46946;BME280;32679;40.810;14.498;2023-10-09T04:06:30;100745.78;;;18.79;69.36
46946;BME280;32679;40.810;14.498;2023-10-09T04:09:09;100763.88;;;18.89;69.56
46946;BME280;32679;40.810;14.498;2023-10-09T04:11:45;100767.13;;;18.87;69.36
46946;BME280;32679;40.810;14.498;2023-10-09T04:14:14;100772.72;;;18.91;68.92
46946;BME280;32679;40.810;14.498;2023-10-09T04:17:00;100751.84;;;18.70;68.88
46946;BME280;32679;40.810;14.498;2023-10-09T04:19:31;100776.78;;;18.86;69.90
46946;BME280;32679;40.810;14.498;2023-10-09T04:22:13;100770.72;;;18.95;69.64
46946;BME280;32679;40.810;14.498;2023-10-09T04:24:51;100772.75;;;18.87;69.50
46946;BME280;32679;40.810;14.498;2023-10-09T04:27:16;100742.56;;;18.63;69.00
46946;BME280;32679;40.810;14.498;2023-10-09T04:29:42;100776.41;;;18.80;69.15
46946;BME280;32679;40.810;14.498;2023-10-09T04:32:12;100782.03;;;18.91;70.60
46946;BME280;32679;40.810;14.498;2023-10-09T04:34:42;100775.16;;;18.89;70.43
46946;BME280;32679;40.810;14.498;2023-10-09T04:37:15;100763.91;;;18.78;69.45
46946;BME280;32679;40.810;14.498;2023-10-09T04:39:43;100737.75;;;18.59;69.77
46946;BME280;32679;40.810;14.498;2023-10-09T04:42:13;100782.00;;;18.98;70.88
46946;BME280;32679;40.810;14.498;2023-10-09T04:44:50;100761.06;;;18.74;70.52
46946;BME280;32679;40.810;14.498;2023-10-09T04:47:29;100782.81;;;18.84;70.51
46946;BME280;32679;40.810;14.498;2023-10-09T04:50:11;100753.03;;;18.73;71.34
46946;BME280;32679;40.810;14.498;2023-10-09T04:52:37;100787.25;;;18.93;71.26
46946;BME280;32679;40.810;14.498;2023-10-09T04:55:03;100791.66;;;19.01;68.84
46946;BME280;32679;40.810;14.498;2023-10-09T05:00:05;100786.41;;;19.10;70.74
46946;BME280;32679;40.810;14.498;2023-10-09T05:02:32;100779.94;;;19.06;70.83
46946;BME280;32679;40.810;14.498;2023-10-09T05:05:02;100769.91;;;18.98;70.67
46946;BME280;32679;40.810;14.498;2023-10-09T05:08:03;100790.84;;;19.04;71.51
46946;BME280;32679;40.810;14.498;2023-10-09T05:10:54;100792.88;;;19.00;70.95
46946;BME280;32679;40.810;14.498;2023-10-09T05:13:26;100796.91;;;18.99;71.79
46946;BME280;32679;40.810;14.498;2023-10-09T05:16:07;100798.53;;;18.89;72.00
46946;BME280;32679;40.810;14.498;2023-10-09T05:18:53;100804.56;;;19.02;71.57
46946;BME280;32679;40.810;14.498;2023-10-09T05:21:40;100811.75;;;19.24;70.56
46946;BME280;32679;40.810;14.498;2023-10-09T05:24:08;100798.44;;;19.28;70.40
46946;BME280;32679;40.810;14.498;2023-10-09T05:26:38;100766.22;;;19.22;69.92
46946;BME280;32679;40.810;14.498;2023-10-09T05:29:16;100813.94;;;19.90;67.81
46946;BME280;32679;40.810;14.498;2023-10-09T05:31:48;100808.28;;;19.94;65.83
46946;BME280;32679;40.810;14.498;2023-10-09T05:34:33;100820.09;;;20.40;64.57
46946;BME280;32679;40.810;14.498;2023-10-09T05:37:05;100802.94;;;20.69;63.43
46946;BME280;32679;40.810;14.498;2023-10-09T05:39:53;100806.47;;;21.18;61.68
46946;BME280;32679;40.810;14.498;2023-10-09T05:42:25;100821.50;;;21.53;59.69
46946;BME280;32679;40.810;14.498;2023-10-09T05:45:12;100818.28;;;21.85;57.65
46946;BME280;32679;40.810;14.498;2023-10-09T05:47:51;100831.25;;;22.40;55.84
46946;BME280;32679;40.810;14.498;2023-10-09T05:50:43;100846.31;;;23.11;53.27
46946;BME280;32679;40.810;14.498;2023-10-09T05:53:27;100822.53;;;23.24;52.86
46946;BME280;32679;40.810;14.498;2023-10-09T05:56:11;100836.16;;;23.53;51.18
46946;BME280;32679;40.810;14.498;2023-10-09T05:58:55;100836.75;;;24.04;50.49
46946;BME280;32679;40.810;14.498;2023-10-09T06:01:39;100860.38;;;24.73;48.54
46946;BME280;32679;40.810;14.498;2023-10-09T06:04:39;100850.31;;;24.85;47.77
46946;BME280;32679;40.810;14.498;2023-10-09T06:07:21;100862.75;;;24.75;47.33
46946;BME280;32679;40.810;14.498;2023-10-09T06:10:06;100842.63;;;25.31;45.96
46946;BME280;32679;40.810;14.498;2023-10-09T06:12:52;100853.00;;;25.67;45.49
46946;BME280;32679;40.810;14.498;2023-10-09T06:15:28;100864.13;;;26.32;44.47
46946;BME280;32679;40.810;14.498;2023-10-09T06:18:16;100872.13;;;26.62;43.77
46946;BME280;32679;40.810;14.498;2023-10-09T06:20:59;100868.56;;;26.84;41.80
46946;BME280;32679;40.810;14.498;2023-10-09T06:23:31;100881.63;;;26.59;43.01
46946;BME280;32679;40.810;14.498;2023-10-09T06:26:15;100872.34;;;26.68;42.18
46946;BME280;32679;40.810;14.498;2023-10-09T06:28:50;100868.03;;;26.51;42.90
46946;BME280;32679;40.810;14.498;2023-10-09T06:31:36;100882.25;;;26.25;43.88
46946;BME280;32679;40.810;14.498;2023-10-09T06:34:20;100875.44;;;26.74;42.48
46946;BME280;32679;40.810;14.498;2023-10-09T06:36:50;100897.81;;;26.88;41.90
46946;BME280;32679;40.810;14.498;2023-10-09T06:39:18;100904.53;;;27.54;39.90
46946;BME280;32679;40.810;14.498;2023-10-09T06:42:02;100904.06;;;27.56;39.56
46946;BME280;32679;40.810;14.498;2023-10-09T06:44:35;100901.50;;;28.14;38.38
46946;BME280;32679;40.810;14.498;2023-10-09T06:47:18;100889.28;;;27.35;39.49
46946;BME280;32679;40.810;14.498;2023-10-09T06:49:44;100914.53;;;27.37;39.69
46946;BME280;32679;40.810;14.498;2023-10-09T06:52:29;100911.25;;;27.00;39.31
46946;BME280;32679;40.810;14.498;2023-10-09T06:55:14;100916.31;;;26.45;40.62
46946;BME280;32679;40.810;14.498;2023-10-09T06:57:57;100913.78;;;27.11;39.40
46946;BME280;32679;40.810;14.498;2023-10-09T07:00:29;100920.06;;;27.19;39.64
46946;BME280;32679;40.810;14.498;2023-10-09T07:03:13;100911.97;;;27.86;38.56
46946;BME280;32679;40.810;14.498;2023-10-09T07:05:39;100932.53;;;27.59;38.36
46946;BME280;32679;40.810;14.498;2023-10-09T07:08:30;100925.53;;;27.26;37.62
46946;BME280;32679;40.810;14.498;2023-10-09T07:11:03;100924.84;;;27.91;37.47
46946;BME280;32679;40.810;14.498;2023-10-09T07:14:00;100908.44;;;27.82;38.22
46946;BME280;32679;40.810;14.498;2023-10-09T07:16:27;100927.78;;;27.78;38.18
46946;BME280;32679;40.810;14.498;2023-10-09T07:19:04;100938.00;;;28.54;36.54
46946;BME280;32679;40.810;14.498;2023-10-09T07:21:50;100926.34;;;28.39;37.23
46946;BME280;32679;40.810;14.498;2023-10-09T07:24:20;100936.97;;;29.10;36.91
46946;BME280;32679;40.810;14.498;2023-10-09T07:26:50;100927.44;;;29.13;36.48
46946;BME280;32679;40.810;14.498;2023-10-09T07:29:20;100941.88;;;29.59;35.12
46946;BME280;32679;40.810;14.498;2023-10-09T07:31:52;100953.00;;;30.31;34.20
46946;BME280;32679;40.810;14.498;2023-10-09T07:34:24;100956.69;;;30.13;34.72
46946;BME280;32679;40.810;14.498;2023-10-09T07:37:08;100936.88;;;29.50;36.00
46946;BME280;32679;40.810;14.498;2023-10-09T07:39:34;100925.03;;;29.12;35.66
46946;BME280;32679;40.810;14.498;2023-10-09T07:42:03;100935.50;;;28.65;36.32
46946;BME280;32679;40.810;14.498;2023-10-09T07:44:43;100949.72;;;29.09;36.82
46946;BME280;32679;40.810;14.498;2023-10-09T07:47:18;100947.63;;;29.78;35.80
46946;BME280;32679;40.810;14.498;2023-10-09T07:50:09;100956.53;;;30.16;35.49
46946;BME280;32679;40.810;14.498;2023-10-09T07:52:36;100948.31;;;30.51;34.72
46946;BME280;32679;40.810;14.498;2023-10-09T07:55:09;100969.69;;;30.60;33.54
46946;BME280;32679;40.810;14.498;2023-10-09T07:57:52;100968.53;;;30.66;32.95
46946;BME280;32679;40.810;14.498;2023-10-09T08:00:17;100965.97;;;30.77;31.89
46946;BME280;32679;40.810;14.498;2023-10-09T08:03:01;100966.47;;;31.09;31.21
46946;BME280;32679;40.810;14.498;2023-10-09T08:05:28;100977.81;;;31.03;30.41
46946;BME280;32679;40.810;14.498;2023-10-09T08:08:00;100962.38;;;31.01;30.55
46946;BME280;32679;40.810;14.498;2023-10-09T08:10:44;100968.88;;;30.68;31.06
46946;BME280;32679;40.810;14.498;2023-10-09T08:13:28;100973.13;;;31.48;29.95
46946;BME280;32679;40.810;14.498;2023-10-09T08:16:11;100942.63;;;31.27;30.30
46946;BME280;32679;40.810;14.498;2023-10-09T08:18:45;100967.38;;;30.82;30.84
46946;BME280;32679;40.810;14.498;2023-10-09T08:21:11;100970.09;;;30.86;29.82
46946;BME280;32679;40.810;14.498;2023-10-09T08:23:36;100958.72;;;30.40;31.09
46946;BME280;32679;40.810;14.498;2023-10-09T08:26:18;100935.25;;;31.50;29.33
46946;BME280;32679;40.810;14.498;2023-10-09T08:29:12;100956.09;;;30.60;30.13
46946;BME280;32679;40.810;14.498;2023-10-09T08:31:44;100963.31;;;30.98;30.13
46946;BME280;32679;40.810;14.498;2023-10-09T08:34:13;100958.09;;;31.20;29.55
46946;BME280;32679;40.810;14.498;2023-10-09T08:36:50;100968.63;;;31.80;29.44
46946;BME280;32679;40.810;14.498;2023-10-09T08:39:22;100963.19;;;31.73;29.33
46946;BME280;32679;40.810;14.498;2023-10-09T08:41:58;100957.75;;;31.75;29.51
46946;BME280;32679;40.810;14.498;2023-10-09T08:44:27;100964.38;;;31.91;29.44
46946;BME280;32679;40.810;14.498;2023-10-09T08:46:57;100965.97;;;31.92;29.88
46946;BME280;32679;40.810;14.498;2023-10-09T08:49:23;100965.72;;;31.33;30.77
46946;BME280;32679;40.810;14.498;2023-10-09T08:51:49;100948.38;;;30.33;32.78
46946;BME280;32679;40.810;14.498;2023-10-09T08:54:18;100965.53;;;30.70;32.51
46946;BME280;32679;40.810;14.498;2023-10-09T08:56:45;100944.25;;;29.97;33.71
46946;BME280;32679;40.810;14.498;2023-10-09T08:59:18;100961.78;;;30.27;34.61
46946;BME280;32679;40.810;14.498;2023-10-09T09:01:45;100960.91;;;30.63;34.47
46946;BME280;32679;40.810;14.498;2023-10-09T09:04:36;100962.16;;;30.62;34.86
46946;BME280;32679;40.810;14.498;2023-10-09T09:07:04;100958.00;;;30.72;34.73
46946;BME280;32679;40.810;14.498;2023-10-09T09:09:30;100954.41;;;30.96;34.85
46946;BME280;32679;40.810;14.498;2023-10-09T09:11:57;100951.97;;;30.70;36.01
46946;BME280;32679;40.810;14.498;2023-10-09T09:14:35;100973.63;;;30.81;35.31
46946;BME280;32679;40.810;14.498;2023-10-09T09:17:02;100961.88;;;31.36;35.50
46946;BME280;32679;40.810;14.498;2023-10-09T09:19:33;100947.25;;;30.91;36.33
46946;BME280;32679;40.810;14.498;2023-10-09T09:22:03;100950.25;;;30.97;35.88
46946;BME280;32679;40.810;14.498;2023-10-09T09:24:38;100945.41;;;30.61;36.25
46946;BME280;32679;40.810;14.498;2023-10-09T09:27:05;100953.16;;;30.88;35.46
46946;BME280;32679;40.810;14.498;2023-10-09T09:29:47;100957.19;;;30.63;36.30
46946;BME280;32679;40.810;14.498;2023-10-09T09:32:27;100957.38;;;30.68;35.82
46946;BME280;32679;40.810;14.498;2023-10-09T09:34:55;100950.53;;;30.99;35.12
46946;BME280;32679;40.810;14.498;2023-10-09T09:37:28;100942.06;;;32.15;33.61
46946;BME280;32679;40.810;14.498;2023-10-09T09:40:01;100934.88;;;31.57;34.25
46946;BME280;32679;40.810;14.498;2023-10-09T09:42:36;100956.59;;;31.82;33.93
46946;BME280;32679;40.810;14.498;2023-10-09T09:45:04;100947.13;;;31.43;34.92
46946;BME280;32679;40.810;14.498;2023-10-09T09:47:30;100956.13;;;31.36;34.57
46946;BME280;32679;40.810;14.498;2023-10-09T09:50:01;100959.63;;;31.07;35.27
46946;BME280;32679;40.810;14.498;2023-10-09T09:52:36;100956.72;;;31.40;34.83
46946;BME280;32679;40.810;14.498;2023-10-09T09:55:09;100952.19;;;31.72;34.95
46946;BME280;32679;40.810;14.498;2023-10-09T09:57:48;100952.69;;;31.46;35.01
46946;BME280;32679;40.810;14.498;2023-10-09T10:00:20;100950.13;;;31.15;37.44
46946;BME280;32679;40.810;14.498;2023-10-09T10:03:29;100947.22;;;32.11;35.76
46946;BME280;32679;40.810;14.498;2023-10-09T10:06:00;100956.00;;;32.61;35.56
46946;BME280;32679;40.810;14.498;2023-10-09T10:08:30;100947.03;;;32.29;36.17
46946;BME280;32679;40.810;14.498;2023-10-09T10:10:59;100918.72;;;31.60;37.33
46946;BME280;32679;40.810;14.498;2023-10-09T10:16:06;100947.34;;;32.46;36.09
46946;BME280;32679;40.810;14.498;2023-10-09T10:19:02;100924.69;;;32.24;36.46
46946;BME280;32679;40.810;14.498;2023-10-09T10:21:37;100920.72;;;32.66;35.63
46946;BME280;32679;40.810;14.498;2023-10-09T10:30:26;100928.28;;;32.49;36.21
46946;BME280;32679;40.810;14.498;2023-10-09T10:32:58;100926.31;;;32.55;36.35
46946;BME280;32679;40.810;14.498;2023-10-09T10:35:24;100927.84;;;32.12;36.42
46946;BME280;32679;40.810;14.498;2023-10-09T10:38:30;100915.09;;;31.02;39.30
46946;BME280;32679;40.810;14.498;2023-10-09T10:41:11;100909.78;;;31.81;37.52
46946;BME280;32679;40.810;14.498;2023-10-09T10:43:37;100909.38;;;31.50;38.72
46946;BME280;32679;40.810;14.498;2023-10-09T10:46:18;100903.53;;;30.45;40.73
46946;BME280;32679;40.810;14.498;2023-10-09T10:48:50;100883.94;;;30.76;39.49
46946;BME280;32679;40.810;14.498;2023-10-09T10:51:27;100865.97;;;30.06;40.92
46946;BME280;32679;40.810;14.498;2023-10-09T10:54:06;100869.66;;;31.15;39.39
46946;BME280;32679;40.810;14.498;2023-10-09T10:56:50;100892.16;;;30.93;39.82
46946;BME280;32679;40.810;14.498;2023-10-09T10:59:16;100869.31;;;30.65;40.02
46946;BME280;32679;40.810;14.498;2023-10-09T11:01:52;100873.97;;;30.96;39.58
46946;BME280;32679;40.810;14.498;2023-10-09T11:04:20;100877.69;;;31.11;39.27
46946;BME280;32679;40.810;14.498;2023-10-09T11:07:01;100860.47;;;30.36;41.44
46946;BME280;32679;40.810;14.498;2023-10-09T11:09:53;100850.03;;;30.57;41.91
46946;BME280;32679;40.810;14.498;2023-10-09T11:12:42;100855.31;;;30.58;42.27
46946;BME280;32679;40.810;14.498;2023-10-09T11:15:11;100848.97;;;30.78;42.25
46946;BME280;32679;40.810;14.498;2023-10-09T11:18:00;100848.00;;;30.48;42.82
46946;BME280;32679;40.810;14.498;2023-10-09T11:20:43;100831.78;;;30.36;43.01
46946;BME280;32679;40.810;14.498;2023-10-09T11:23:22;100838.97;;;30.97;42.17
46946;BME280;32679;40.810;14.498;2023-10-09T11:26:01;100828.56;;;30.43;42.86
46946;BME280;32679;40.810;14.498;2023-10-09T11:28:46;100802.47;;;30.32;43.19
46946;BME280;32679;40.810;14.498;2023-10-09T11:31:22;100804.75;;;30.09;43.99
46946;BME280;32679;40.810;14.498;2023-10-09T11:33:49;100812.00;;;30.38;43.74
46946;BME280;32679;40.810;14.498;2023-10-09T11:36:17;100814.91;;;30.29;43.23
46946;BME280;32679;40.810;14.498;2023-10-09T11:38:47;100810.56;;;29.82;44.57
46946;BME280;32679;40.810;14.498;2023-10-09T11:41:15;100808.06;;;29.65;45.58
46946;BME280;32679;40.810;14.498;2023-10-09T11:43:49;100809.22;;;30.10;44.78
46946;BME280;32679;40.810;14.498;2023-10-09T11:46:21;100790.31;;;29.94;44.92
46946;BME280;32679;40.810;14.498;2023-10-09T11:49:11;100780.59;;;29.92;45.20
46946;BME280;32679;40.810;14.498;2023-10-09T11:51:46;100792.06;;;29.92;45.33
46946;BME280;32679;40.810;14.498;2023-10-09T11:54:31;100776.94;;;30.34;44.24
46946;BME280;32679;40.810;14.498;2023-10-09T11:56:58;100787.25;;;30.73;42.72
46946;BME280;32679;40.810;14.498;2023-10-09T11:59:29;100769.22;;;30.73;42.65
46946;BME280;32679;40.810;14.498;2023-10-09T12:02:04;100768.16;;;29.95;43.96
46946;BME280;32679;40.810;14.498;2023-10-09T12:04:30;100777.34;;;30.17;44.36
46946;BME280;32679;40.810;14.498;2023-10-09T12:06:56;100779.56;;;29.62;44.69
46946;BME280;32679;40.810;14.498;2023-10-09T12:09:42;100780.47;;;29.77;44.68
46946;BME280;32679;40.810;14.498;2023-10-09T12:12:08;100780.28;;;29.90;44.32
46946;BME280;32679;40.810;14.498;2023-10-09T12:14:36;100774.56;;;29.81;43.64
46946;BME280;32679;40.810;14.498;2023-10-09T12:17:05;100756.63;;;30.04;42.26
46946;BME280;32679;40.810;14.498;2023-10-09T12:19:36;100735.13;;;29.48;41.38
46946;BME280;32679;40.810;14.498;2023-10-09T12:22:03;100756.84;;;29.91;41.81
46946;BME280;32679;40.810;14.498;2023-10-09T12:24:31;100761.13;;;29.96;41.44
46946;BME280;32679;40.810;14.498;2023-10-09T12:26:56;100748.38;;;29.97;42.03
46946;BME280;32679;40.810;14.498;2023-10-09T12:29:22;100746.44;;;30.03;41.21
46946;BME280;32679;40.810;14.498;2023-10-09T12:31:49;100748.75;;;29.81;41.09
46946;BME280;32679;40.810;14.498;2023-10-09T12:34:26;100725.44;;;29.97;43.18
46946;BME280;32679;40.810;14.498;2023-10-09T12:36:55;100741.63;;;30.18;42.86
46946;BME280;32679;40.810;14.498;2023-10-09T12:39:23;100737.03;;;29.60;42.13
46946;BME280;32679;40.810;14.498;2023-10-09T12:41:49;100723.34;;;29.46;42.27
46946;BME280;32679;40.810;14.498;2023-10-09T12:44:19;100739.25;;;29.65;43.18
46946;BME280;32679;40.810;14.498;2023-10-09T12:46:45;100744.03;;;29.68;45.75
46946;BME280;32679;40.810;14.498;2023-10-09T12:49:21;100726.53;;;29.48;46.19
46946;BME280;32679;40.810;14.498;2023-10-09T12:51:55;100723.06;;;29.07;48.47
46946;BME280;32679;40.810;14.498;2023-10-09T12:54:27;100726.06;;;28.85;49.85
46946;BME280;32679;40.810;14.498;2023-10-09T12:56:53;100719.25;;;29.19;50.09
46946;BME280;32679;40.810;14.498;2023-10-09T12:59:19;100711.75;;;29.13;53.80
46946;BME280;32679;40.810;14.498;2023-10-09T13:01:46;100714.88;;;29.61;53.35
46946;BME280;32679;40.810;14.498;2023-10-09T13:04:17;100727.50;;;29.54;54.09
46946;BME280;32679;40.810;14.498;2023-10-09T13:06:43;100725.94;;;29.86;54.57
46946;BME280;32679;40.810;14.498;2023-10-09T13:09:10;100717.63;;;29.28;56.36
46946;BME280;32679;40.810;14.498;2023-10-09T13:11:36;100717.22;;;29.81;55.20
46946;BME280;32679;40.810;14.498;2023-10-09T13:14:02;100712.03;;;29.42;56.93
46946;BME280;32679;40.810;14.498;2023-10-09T13:16:37;100721.81;;;28.99;58.87
46946;BME280;32679;40.810;14.498;2023-10-09T13:19:02;100723.69;;;29.30;59.28
46946;BME280;32679;40.810;14.498;2023-10-09T13:21:35;100713.53;;;29.19;59.14
46946;BME280;32679;40.810;14.498;2023-10-09T13:24:03;100716.72;;;28.94;61.74
46946;BME280;32679;40.810;14.498;2023-10-09T13:26:29;100704.28;;;28.88;61.46